Nason, IL (62866)

2:19 PM CST on December 19, 2014 (GMT -0600)
Northeast of Benton | Change Station
CLOSE
Current Station
Personal Weather Station
Location: Benton, IL
Elevation: 433 ft
Nearby Weather Stations

Elev 433 ft 38.01 °N, 88.90 °W | Updated 9 minutes ago

Overcast
Overcast
37.8 °F
Feels Like 38 °F
N
2.0
Wind Variable Wind from WNW
Gusts 3.0 mph

Today
High -- | Low -- °F
--% Chance of Precip.
Yesterday
High -- | Low -- °F
Precip. -- in
7:07 AM 4:38 PM
Waning Crescent, 6% visible
Pressure 30.31 in
Visibility 10.0 miles
Clouds Overcast 3800 ft
Windchill 38 °F
Dew Point 30 °F
Humidity 72%
Rainfall 0.00 in
Snow Depth Not available.
UV 0 out of 12
Pollen 1.10 out of 12
Air Quality Not available.
Flu Activity Not available.
METAR KMVN 192015Z AUTO 25003KT 10SM OVC038 02/M05 A3031 RMK AO1

More Conditions Fewer Conditions

Pressure 30.31 in
Visibility 10.0 miles
Clouds Overcast 3800 ft
Windchill 38 °F
Dew Point 30 °F
Humidity 72%
Rainfall 0.00 in
Snow Depth Not available.
UV 0 out of 12
Pollen 1.10 out of 12
Air Quality Not available.
Flu Activity Not available.
METAR KMVN 192015Z AUTO 25003KT 10SM OVC038 02/M05 A3031 RMK AO1

More Conditions Fewer Conditions

10-Day Weather Forecast

Almanac

Astronomy

Dec. 19, 2014 Rise Set
Actual Time
Civil Twilight
Nautical Twilight
Astronomical Twilight
Moon
Length of Visible Light
Length of Day
Tomorrow will be .
, % of the Moon is Illuminated

Today's Extremes

State Highs State Lows

Community

WunderPhotos

Upload Photos

1,779,048 photos uploaded!

WunderBlogs® & News

Nearby

Air Quality

  Air Quality AQ Index Pollutant
Not available.

Snow Depth

Station Depth Elevation

Earthquake Activity

City Distance Mag. Time & Date
Minimum magnitude displayed is 2.5.

Coastal Water Temperatures

Place Temperature

Nearby Weather Stations